createdAt,value
2022-08-02T00:00:08.891Z,16.10
2022-08-02T00:02:09.090Z,16.00
2022-08-02T00:04:08.948Z,15.90
2022-08-02T00:06:08.931Z,15.90
2022-08-02T00:08:08.870Z,15.90
2022-08-02T00:10:08.858Z,15.90
2022-08-02T00:12:38.871Z,15.90
2022-08-02T00:14:38.874Z,15.80
2022-08-02T00:16:38.869Z,15.80
2022-08-02T00:18:38.870Z,15.80
2022-08-02T00:20:38.867Z,15.80
2022-08-02T00:22:38.863Z,15.80
2022-08-02T00:24:38.857Z,15.80
2022-08-02T00:26:38.866Z,15.70
2022-08-02T00:28:38.968Z,15.70
2022-08-02T00:30:38.867Z,15.70
2022-08-02T00:32:38.875Z,15.70
2022-08-02T00:34:38.986Z,15.60
2022-08-02T00:36:38.865Z,15.60
2022-08-02T00:38:38.883Z,15.60
2022-08-02T00:40:38.890Z,15.60
2022-08-02T00:42:38.873Z,15.60
2022-08-02T00:44:38.910Z,15.60
2022-08-02T00:46:38.880Z,15.50
2022-08-02T00:48:41.356Z,15.50
2022-08-02T00:50:38.890Z,15.40
2022-08-02T00:52:38.899Z,15.30
2022-08-02T00:54:38.891Z,15.20
2022-08-02T00:56:38.886Z,15.20
2022-08-02T00:58:38.900Z,15.20
2022-08-02T01:00:38.906Z,15.10
2022-08-02T01:02:38.887Z,15.10
2022-08-02T01:04:39.003Z,15.00
2022-08-02T01:06:38.910Z,15.00
2022-08-02T01:08:38.942Z,15.00
2022-08-02T01:10:38.909Z,15.00
2022-08-02T01:12:38.890Z,15.00
2022-08-02T01:14:38.907Z,15.00
2022-08-02T01:16:38.973Z,15.00
2022-08-02T01:18:38.971Z,15.00
2022-08-02T01:20:38.900Z,14.80
2022-08-02T01:23:00.497Z,14.80
2022-08-02T01:24:38.928Z,14.70
2022-08-02T01:26:38.907Z,14.70
2022-08-02T01:28:38.920Z,14.60
2022-08-02T01:30:38.919Z,14.60
2022-08-02T01:32:38.934Z,14.70
2022-08-02T01:34:38.957Z,14.70
2022-08-02T01:36:38.940Z,14.70
2022-08-02T01:38:38.924Z,14.90
2022-08-02T01:40:38.933Z,14.90
2022-08-02T01:42:38.926Z,14.90
2022-08-02T01:44:38.932Z,14.90
2022-08-02T01:46:38.947Z,15.00
2022-08-02T01:48:38.929Z,15.00
2022-08-02T01:50:38.935Z,14.80
2022-08-02T01:52:38.931Z,14.80
2022-08-02T01:54:39.032Z,14.80
2022-08-02T01:56:38.932Z,14.80
2022-08-02T01:58:38.922Z,14.70
2022-08-02T02:00:38.943Z,14.70
2022-08-02T02:02:38.943Z,14.70
2022-08-02T02:04:38.943Z,14.70
2022-08-02T02:06:38.950Z,14.70
2022-08-02T02:08:39.028Z,14.70
2022-08-02T02:12:09.350Z,14.60
2022-08-02T02:13:08.950Z,14.60
2022-08-02T02:15:08.956Z,14.60
2022-08-02T02:17:08.949Z,14.60
2022-08-02T02:19:08.949Z,14.50
2022-08-02T02:21:08.951Z,14.50
2022-08-02T02:23:08.965Z,14.50
2022-08-02T02:25:11.415Z,14.50
2022-08-02T02:27:08.940Z,14.50
2022-08-02T02:29:08.977Z,14.50
2022-08-02T02:31:08.983Z,14.50
2022-08-02T02:33:08.979Z,14.50
2022-08-02T02:35:09.008Z,14.50
2022-08-02T02:37:08.957Z,14.50
2022-08-02T02:39:13.380Z,14.50
2022-08-02T02:41:08.957Z,14.40
2022-08-02T02:43:09.070Z,14.40
2022-08-02T02:45:08.965Z,14.40
2022-08-02T02:47:08.985Z,14.30
2022-08-02T02:49:09.005Z,14.20
2022-08-02T02:51:13.870Z,14.10
2022-08-02T02:53:08.983Z,14.10
2022-08-02T02:55:08.983Z,14.10
2022-08-02T02:57:08.998Z,14.10
2022-08-02T02:59:09.012Z,14.00
2022-08-02T03:01:09.060Z,14.00
2022-08-02T03:03:08.999Z,14.00
2022-08-02T03:05:08.982Z,14.00
2022-08-02T03:07:08.988Z,14.10
2022-08-02T03:09:10.010Z,14.10
2022-08-02T03:11:09.002Z,14.10
2022-08-02T03:13:09.016Z,14.10
2022-08-02T03:15:08.994Z,14.00
2022-08-02T03:17:08.996Z,14.10
2022-08-02T03:19:08.989Z,14.20
2022-08-02T03:21:08.993Z,14.10
2022-08-02T03:23:09.003Z,14.10
2022-08-02T03:25:08.997Z,14.10
2022-08-02T03:27:08.997Z,14.10
2022-08-02T03:29:09.745Z,14.00
2022-08-02T03:31:08.989Z,14.00
2022-08-02T03:33:09.023Z,14.00
2022-08-02T03:35:08.997Z,13.90
2022-08-02T03:37:09.004Z,13.90
2022-08-02T03:39:09.013Z,13.80
2022-08-02T03:41:09.019Z,13.80
2022-08-02T03:43:09.044Z,13.80
2022-08-02T03:45:09.172Z,13.80
2022-08-02T03:47:09.018Z,13.80
2022-08-02T03:49:09.068Z,13.70
2022-08-02T03:51:09.047Z,13.70
2022-08-02T03:53:09.038Z,13.80
2022-08-02T03:55:09.018Z,13.80
2022-08-02T03:57:09.624Z,13.80
2022-08-02T03:59:09.018Z,13.80
2022-08-02T04:01:09.069Z,13.80
2022-08-02T04:03:09.038Z,13.90
2022-08-02T04:05:09.071Z,13.90
2022-08-02T04:07:09.020Z,13.90
2022-08-02T04:09:39.028Z,13.90
2022-08-02T04:11:39.063Z,13.90
2022-08-02T04:13:39.037Z,13.90
2022-08-02T04:15:39.023Z,13.90
2022-08-02T04:17:39.043Z,14.00
2022-08-02T04:19:39.039Z,14.00
2022-08-02T04:21:51.174Z,14.00
2022-08-02T04:23:39.050Z,14.10
2022-08-02T04:25:40.492Z,14.10
2022-08-02T04:27:50.832Z,14.10
2022-08-02T04:29:41.694Z,14.10
2022-08-02T04:31:39.037Z,14.30
2022-08-02T04:33:39.058Z,14.30
2022-08-02T04:35:39.042Z,14.20
2022-08-02T04:37:39.050Z,14.20
2022-08-02T04:39:39.075Z,14.20
2022-08-02T04:41:40.751Z,14.20
2022-08-02T04:43:39.083Z,14.20
2022-08-02T04:45:39.145Z,14.20
2022-08-02T04:48:03.657Z,14.20
2022-08-02T04:49:39.101Z,14.20
2022-08-02T04:51:39.083Z,14.20
2022-08-02T04:53:39.130Z,14.30
2022-08-02T04:55:39.116Z,14.30
2022-08-02T04:57:39.113Z,14.30
2022-08-02T04:59:39.070Z,14.30
2022-08-02T05:01:39.169Z,14.30
2022-08-02T05:03:39.268Z,14.30
2022-08-02T05:05:39.195Z,14.30
2022-08-02T05:07:39.075Z,14.30
2022-08-02T05:09:39.065Z,14.50
2022-08-02T05:11:39.065Z,14.40
2022-08-02T05:13:58.616Z,14.50
2022-08-02T05:15:39.152Z,14.50
2022-08-02T05:17:39.186Z,14.60
2022-08-02T05:19:39.092Z,14.60
2022-08-02T05:21:39.081Z,14.60
2022-08-02T05:23:39.150Z,14.70
2022-08-02T05:25:39.079Z,14.70
2022-08-02T05:27:39.134Z,14.80
2022-08-02T05:29:39.074Z,15.00
2022-08-02T05:31:39.262Z,15.00
2022-08-02T05:33:39.279Z,15.00
2022-08-02T05:35:39.087Z,15.00
2022-08-02T05:37:39.186Z,15.00
2022-08-02T05:39:39.180Z,15.10
2022-08-02T05:41:39.120Z,15.20
2022-08-02T05:43:39.238Z,15.20
2022-08-02T05:45:39.177Z,15.30
2022-08-02T05:47:39.237Z,15.30
2022-08-02T05:49:39.170Z,15.50
2022-08-02T05:51:39.221Z,15.60
2022-08-02T05:53:39.129Z,15.60
2022-08-02T05:55:39.102Z,15.70
2022-08-02T05:57:43.179Z,15.80
2022-08-02T05:59:39.112Z,15.90
2022-08-02T06:01:39.226Z,15.90
2022-08-02T06:07:47.537Z,16.20
2022-08-02T06:09:47.539Z,16.20
2022-08-02T06:12:00.679Z,16.20
2022-08-02T06:13:47.608Z,16.40
2022-08-02T06:15:53.526Z,16.40
2022-08-02T06:17:47.935Z,16.50
2022-08-02T06:19:52.198Z,16.60
2022-08-02T06:22:33.596Z,16.60
2022-08-02T06:23:58.079Z,16.70
2022-08-02T06:25:48.491Z,16.80
2022-08-02T06:27:47.545Z,16.80
2022-08-02T06:29:47.556Z,16.90
2022-08-02T06:31:47.535Z,16.90
2022-08-02T06:33:47.567Z,17.00
2022-08-02T06:35:47.608Z,17.00
2022-08-02T06:37:47.558Z,17.10
2022-08-02T06:40:17.554Z,17.10
2022-08-02T06:42:17.556Z,17.20
2022-08-02T06:44:44.718Z,17.20
2022-08-02T06:46:37.802Z,17.20
2022-08-02T06:48:17.562Z,17.20
2022-08-02T06:50:17.560Z,17.30
2022-08-02T06:52:19.108Z,17.40
2022-08-02T06:54:17.566Z,17.40
2022-08-02T06:56:17.694Z,17.40
2022-08-02T06:58:17.571Z,17.50
2022-08-02T07:00:17.565Z,17.60
2022-08-02T07:02:17.599Z,17.60
2022-08-02T07:04:20.281Z,17.60
2022-08-02T07:06:17.583Z,17.70
2022-08-02T07:08:17.594Z,17.70
2022-08-02T07:10:17.580Z,17.90
2022-08-02T07:12:17.582Z,17.90
2022-08-02T07:14:17.578Z,18.00
2022-08-02T07:16:17.590Z,18.20
2022-08-02T07:18:17.589Z,18.50
2022-08-02T07:20:17.642Z,18.70
2022-08-02T07:22:17.583Z,18.70
2022-08-02T07:24:17.590Z,19.00
2022-08-02T07:26:17.597Z,19.20
2022-08-02T07:28:20.786Z,19.50
2022-08-02T07:30:17.601Z,19.60
2022-08-02T07:32:17.607Z,19.60
2022-08-02T07:34:17.593Z,19.80
2022-08-02T07:36:22.755Z,19.80
2022-08-02T07:38:17.589Z,19.90
2022-08-02T07:40:20.038Z,19.90
2022-08-02T07:42:17.610Z,20.00
2022-08-02T07:44:17.607Z,20.00
2022-08-02T07:46:17.607Z,20.10
2022-08-02T07:48:17.604Z,20.10
2022-08-02T07:50:17.610Z,20.10
2022-08-02T07:52:17.626Z,20.70
2022-08-02T07:54:17.617Z,21.10
2022-08-02T07:56:17.624Z,21.40
2022-08-02T07:58:17.610Z,21.80
2022-08-02T08:00:17.758Z,21.80
2022-08-02T08:02:17.614Z,22.20
2022-08-02T08:04:17.641Z,22.60
2022-08-02T08:06:17.630Z,23.00
2022-08-02T08:08:17.875Z,23.00
2022-08-02T08:10:17.629Z,23.70
2022-08-02T08:12:17.640Z,24.00
2022-08-02T08:14:17.666Z,24.40
2022-08-02T08:16:17.619Z,24.30
2022-08-02T08:18:17.643Z,24.30
2022-08-02T08:20:17.630Z,23.90
2022-08-02T08:22:17.641Z,24.20
2022-08-02T08:24:17.702Z,24.60
2022-08-02T08:26:17.744Z,25.00
2022-08-02T08:28:17.825Z,25.00
2022-08-02T08:30:17.662Z,25.00
2022-08-02T08:32:18.737Z,25.00
2022-08-02T08:34:17.645Z,25.20
2022-08-02T08:36:17.684Z,25.20
2022-08-02T08:38:17.640Z,25.40
2022-08-02T08:40:47.653Z,25.30
2022-08-02T08:42:47.672Z,25.60
2022-08-02T08:44:47.676Z,25.40
2022-08-02T08:46:47.659Z,25.40
2022-08-02T08:48:47.660Z,25.20
2022-08-02T08:50:47.651Z,25.70
2022-08-02T08:52:47.658Z,26.00
2022-08-02T08:54:48.670Z,26.50
2022-08-02T08:56:47.662Z,26.50
2022-08-02T08:58:47.903Z,26.60
2022-08-02T09:00:47.723Z,26.90
2022-08-02T09:02:47.820Z,26.90
2022-08-02T09:04:50.596Z,26.90
2022-08-02T09:06:47.682Z,27.10
2022-08-02T09:08:47.669Z,27.00
2022-08-02T09:10:47.680Z,27.00
2022-08-02T09:12:47.685Z,26.20
2022-08-02T09:14:50.079Z,26.20
2022-08-02T09:16:47.683Z,26.30
2022-08-02T09:18:47.804Z,26.80
2022-08-02T09:20:47.722Z,27.00
2022-08-02T09:22:47.687Z,27.60
2022-08-02T09:24:47.703Z,27.60
2022-08-02T09:26:47.708Z,28.30
2022-08-02T09:28:47.708Z,28.50
2022-08-02T09:30:47.711Z,28.80
2022-08-02T09:32:47.734Z,28.80
2022-08-02T09:34:47.711Z,29.10
2022-08-02T09:36:47.706Z,28.50
2022-08-02T09:38:47.727Z,28.20
2022-08-02T09:40:47.754Z,28.20
2022-08-02T09:42:47.722Z,28.20
2022-08-02T09:44:47.706Z,27.20
2022-08-02T09:46:47.861Z,27.70
2022-08-02T09:48:47.800Z,28.00
2022-08-02T09:50:47.737Z,28.00
2022-08-02T09:52:47.753Z,28.00
2022-08-02T09:54:47.760Z,28.40
2022-08-02T09:56:47.753Z,29.00
2022-08-02T09:58:47.757Z,29.40
2022-08-02T10:00:52.519Z,30.10
2022-08-02T10:02:47.745Z,30.10
2022-08-02T10:04:52.929Z,30.40
2022-08-02T10:06:47.735Z,30.80
2022-08-02T10:08:47.750Z,31.20
2022-08-02T10:10:47.744Z,31.20
2022-08-02T10:12:47.733Z,31.40
2022-08-02T10:14:47.784Z,30.80
2022-08-02T10:16:47.755Z,31.10
2022-08-02T10:18:47.775Z,30.80
2022-08-02T10:20:47.941Z,30.80
2022-08-02T10:22:47.789Z,29.50
2022-08-02T10:24:48.677Z,30.20
2022-08-02T10:26:47.817Z,30.20
2022-08-02T10:28:47.750Z,30.00
2022-08-02T10:30:47.789Z,30.00
2022-08-02T10:32:47.770Z,30.00
2022-08-02T10:34:51.222Z,29.20
2022-08-02T10:36:48.058Z,29.20
2022-08-02T10:38:47.786Z,29.20
2022-08-02T10:40:47.768Z,29.60
2022-08-02T10:42:47.767Z,29.70
2022-08-02T10:45:17.776Z,30.00
2022-08-02T10:47:17.849Z,30.10
2022-08-02T10:49:40.062Z,31.00
2022-08-02T10:51:17.805Z,30.90
2022-08-02T10:53:17.795Z,30.90
2022-08-02T10:55:22.307Z,30.40
2022-08-02T10:57:17.901Z,30.50
2022-08-02T10:59:17.830Z,30.80
2022-08-02T11:01:17.910Z,30.10
2022-08-02T11:03:17.877Z,30.10
2022-08-02T11:05:17.840Z,30.20
2022-08-02T11:07:17.799Z,30.50
2022-08-02T11:09:17.791Z,29.90
2022-08-02T11:11:18.759Z,29.90
2022-08-02T11:13:17.809Z,29.90
2022-08-02T11:15:17.784Z,28.90
2022-08-02T11:17:17.802Z,28.50
2022-08-02T11:19:17.821Z,28.60
2022-08-02T11:21:17.802Z,28.60
2022-08-02T11:23:17.835Z,28.60
2022-08-02T11:25:17.813Z,27.90
2022-08-02T11:27:17.931Z,28.30
2022-08-02T11:29:17.826Z,29.20
2022-08-02T11:31:17.838Z,29.20
2022-08-02T11:33:17.841Z,30.10
2022-08-02T11:35:17.838Z,30.50
2022-08-02T11:37:17.822Z,30.90
2022-08-02T11:39:17.849Z,30.90
2022-08-02T11:41:17.931Z,31.50
2022-08-02T11:43:17.865Z,31.80
2022-08-02T11:45:20.807Z,32.30
2022-08-02T11:47:17.825Z,31.90
2022-08-02T11:49:17.913Z,31.90
2022-08-02T11:51:17.847Z,31.60
2022-08-02T11:53:17.867Z,31.60
2022-08-02T11:55:18.011Z,32.00
2022-08-02T11:57:20.066Z,30.90
2022-08-02T11:59:17.890Z,30.90
2022-08-02T12:01:17.904Z,30.00
2022-08-02T12:03:19.791Z,29.70
2022-08-02T12:05:17.865Z,30.10
2022-08-02T12:07:17.946Z,30.10
2022-08-02T12:09:19.277Z,30.60
2022-08-02T12:11:17.859Z,31.00
2022-08-02T12:13:17.861Z,30.50
2022-08-02T12:15:17.874Z,30.60
2022-08-02T12:17:17.919Z,30.60
2022-08-02T12:19:17.873Z,30.60
2022-08-02T12:21:17.870Z,30.20
2022-08-02T12:23:17.877Z,30.20
2022-08-02T12:25:34.309Z,30.60
2022-08-02T12:27:17.884Z,30.60
2022-08-02T12:29:58.594Z,30.90
2022-08-02T12:31:17.871Z,31.60
2022-08-02T12:33:17.891Z,31.60
2022-08-02T12:35:26.670Z,31.60
2022-08-02T12:37:17.902Z,31.20
2022-08-02T12:39:17.924Z,31.20
2022-08-02T12:41:31.806Z,30.90
2022-08-02T12:43:17.877Z,31.00
2022-08-02T12:45:17.919Z,31.00
2022-08-02T12:47:17.922Z,31.00
2022-08-02T12:49:18.913Z,31.30
2022-08-02T12:51:56.390Z,31.50
2022-08-02T12:53:47.964Z,31.80
2022-08-02T12:56:01.019Z,31.80
2022-08-02T12:57:48.075Z,31.00
2022-08-02T12:59:47.952Z,30.80
2022-08-02T13:01:48.076Z,31.10
2022-08-02T13:05:56.048Z,31.20
2022-08-02T13:11:26.515Z,31.60
2022-08-02T13:13:26.372Z,31.60
2022-08-02T13:15:50.200Z,31.60
2022-08-02T13:17:26.426Z,31.50
2022-08-02T13:19:26.340Z,31.70
2022-08-02T13:21:40.107Z,31.60
2022-08-02T13:23:26.383Z,31.60
2022-08-02T13:25:56.327Z,31.60
2022-08-02T13:27:56.345Z,31.70
2022-08-02T13:29:56.345Z,31.60
2022-08-02T13:31:56.325Z,31.40
2022-08-02T13:33:56.349Z,31.40
2022-08-02T13:35:56.353Z,30.60
2022-08-02T13:37:56.336Z,30.80
2022-08-02T13:40:19.909Z,30.40
2022-08-02T13:41:56.363Z,30.40
2022-08-02T13:44:01.350Z,30.50
2022-08-02T13:45:56.356Z,30.60
2022-08-02T13:48:04.349Z,30.90
2022-08-02T13:49:56.368Z,31.00
2022-08-02T13:51:56.364Z,31.00
2022-08-02T13:53:56.348Z,31.40
2022-08-02T13:55:56.449Z,31.40
2022-08-02T13:57:56.383Z,31.50
2022-08-02T13:59:59.072Z,31.40
2022-08-02T14:01:56.517Z,31.40
2022-08-02T14:04:07.669Z,31.60
2022-08-02T14:05:56.368Z,31.40
2022-08-02T14:07:58.736Z,31.40
2022-08-02T14:09:56.378Z,31.40
2022-08-02T14:11:56.355Z,31.70
2022-08-02T14:13:56.391Z,32.00
2022-08-02T14:15:56.370Z,31.70
2022-08-02T14:17:56.380Z,31.80
2022-08-02T14:19:56.445Z,31.80
2022-08-02T14:22:11.737Z,31.80
2022-08-02T14:23:56.385Z,31.90
2022-08-02T14:25:56.372Z,31.80
2022-08-02T14:27:56.384Z,30.80
2022-08-02T14:29:56.382Z,30.80
2022-08-02T14:31:56.385Z,30.60
2022-08-02T14:33:56.393Z,30.30
2022-08-02T14:35:56.396Z,30.30
2022-08-02T14:37:56.422Z,30.30
2022-08-02T14:40:00.515Z,30.00
2022-08-02T14:41:59.168Z,29.70
2022-08-02T14:43:56.421Z,29.80
2022-08-02T14:45:56.406Z,29.70
2022-08-02T14:47:56.397Z,29.70
2022-08-02T14:49:56.874Z,29.20
2022-08-02T14:51:56.421Z,29.30
2022-08-02T14:54:02.495Z,29.40
2022-08-02T14:55:56.405Z,29.30
2022-08-02T14:57:56.470Z,29.30
2022-08-02T14:59:56.442Z,29.20
2022-08-02T15:01:56.482Z,29.10
2022-08-02T15:03:56.436Z,28.70
2022-08-02T15:05:56.415Z,28.60
2022-08-02T15:07:56.424Z,28.60
2022-08-02T15:09:56.555Z,28.50
2022-08-02T15:11:56.429Z,28.40
2022-08-02T15:13:57.572Z,28.30
2022-08-02T15:15:56.435Z,28.30
2022-08-02T15:17:56.437Z,28.30
2022-08-02T15:20:00.942Z,28.10
2022-08-02T15:21:57.023Z,28.20
2022-08-02T15:23:56.434Z,28.20
2022-08-02T15:25:56.539Z,28.20
2022-08-02T15:27:56.465Z,28.20
2022-08-02T15:29:56.437Z,28.20
2022-08-02T15:34:26.451Z,28.00
2022-08-02T15:36:26.445Z,28.00
2022-08-02T15:38:26.441Z,28.00
2022-08-02T15:40:26.533Z,28.10
2022-08-02T15:42:30.431Z,28.20
2022-08-02T15:44:26.471Z,28.30
2022-08-02T15:46:31.108Z,28.40
2022-08-02T15:48:26.485Z,28.40
2022-08-02T15:50:26.484Z,28.40
2022-08-02T15:52:26.468Z,28.50
2022-08-02T15:54:26.456Z,28.40
2022-08-02T15:56:26.473Z,28.40
2022-08-02T15:58:26.474Z,28.40
2022-08-02T16:00:26.470Z,28.20
2022-08-02T16:02:26.584Z,28.40
2022-08-02T16:04:26.507Z,28.40
2022-08-02T16:06:26.486Z,28.30
2022-08-02T16:08:26.495Z,28.30
2022-08-02T16:10:26.499Z,28.20
2022-08-02T16:12:32.941Z,28.30
2022-08-02T16:14:26.467Z,28.40
2022-08-02T16:16:26.486Z,28.40
2022-08-02T16:18:26.482Z,28.40
2022-08-02T16:20:26.481Z,28.50
2022-08-02T16:22:26.509Z,28.60
2022-08-02T16:24:26.578Z,28.60
2022-08-02T16:26:26.477Z,28.60
2022-08-02T16:28:26.489Z,28.70
2022-08-02T16:30:26.494Z,28.80
2022-08-02T16:32:26.496Z,28.80
2022-08-02T16:34:26.491Z,28.90
2022-08-02T16:36:27.588Z,28.90
2022-08-02T16:38:26.506Z,28.90
2022-08-02T16:40:26.503Z,29.10
2022-08-02T16:42:26.502Z,29.10
2022-08-02T16:44:29.077Z,29.10
2022-08-02T16:46:26.520Z,28.90
2022-08-02T16:48:26.526Z,28.90
2022-08-02T16:50:27.277Z,28.70
2022-08-02T16:52:26.530Z,28.60
2022-08-02T16:54:26.635Z,28.60
2022-08-02T16:56:26.528Z,28.20
2022-08-02T16:58:26.531Z,27.90
2022-08-02T17:00:26.510Z,27.70
2022-08-02T17:02:26.607Z,27.60
2022-08-02T17:04:26.566Z,27.60
2022-08-02T17:06:27.469Z,27.40
2022-08-02T17:08:31.655Z,27.40
2022-08-02T17:10:26.565Z,27.40
2022-08-02T17:12:26.529Z,27.40
2022-08-02T17:14:26.853Z,27.30
2022-08-02T17:16:26.673Z,27.30
2022-08-02T17:18:26.745Z,27.30
2022-08-02T17:20:26.525Z,27.20
2022-08-02T17:22:26.538Z,27.20
2022-08-02T17:24:26.547Z,27.20
2022-08-02T17:26:26.612Z,27.20
2022-08-02T17:28:31.304Z,27.30
2022-08-02T17:30:27.369Z,27.30
2022-08-02T17:32:29.165Z,27.30
2022-08-02T17:34:26.944Z,27.20
2022-08-02T17:36:26.553Z,27.10
2022-08-02T17:38:27.405Z,27.10
2022-08-02T17:40:56.570Z,27.10
2022-08-02T17:42:56.566Z,27.00
2022-08-02T17:45:01.041Z,26.80
2022-08-02T17:46:56.671Z,26.70
2022-08-02T17:48:56.588Z,26.50
2022-08-02T17:50:56.581Z,26.50
2022-08-02T17:52:56.763Z,26.40
2022-08-02T17:54:56.573Z,26.30
2022-08-02T17:56:56.565Z,26.20
2022-08-02T17:58:56.590Z,26.20
2022-08-02T18:00:56.581Z,26.20
2022-08-02T18:02:56.592Z,25.90
2022-08-02T18:04:56.569Z,25.90
2022-08-02T18:06:56.615Z,25.80
2022-08-02T18:08:56.586Z,25.60
2022-08-02T18:10:56.593Z,25.60
2022-08-02T18:12:59.155Z,25.60
2022-08-02T18:14:56.611Z,25.40
2022-08-02T18:16:56.672Z,25.40
2022-08-02T18:18:56.622Z,25.40
2022-08-02T18:20:56.593Z,25.30
2022-08-02T18:22:58.481Z,25.10
2022-08-02T18:24:56.586Z,25.00
2022-08-02T18:26:56.631Z,24.90
2022-08-02T18:28:56.607Z,24.90
2022-08-02T18:30:56.610Z,24.80
2022-08-02T18:33:59.169Z,24.70
2022-08-02T18:34:56.605Z,24.60
2022-08-02T18:36:56.833Z,24.40
2022-08-02T18:38:56.632Z,24.40
2022-08-02T18:40:56.619Z,24.40
2022-08-02T18:42:56.637Z,24.20
2022-08-02T18:44:56.638Z,24.10
2022-08-02T18:46:56.626Z,24.10
2022-08-02T18:48:56.710Z,24.00
2022-08-02T18:50:56.616Z,23.90
2022-08-02T18:52:56.642Z,23.80
2022-08-02T18:54:56.627Z,23.70
2022-08-02T18:56:56.611Z,23.70
2022-08-02T18:58:56.703Z,23.60
2022-08-02T19:00:56.698Z,23.60
2022-08-02T19:02:56.749Z,23.50
2022-08-02T19:04:56.786Z,23.40
2022-08-02T19:06:56.748Z,23.40
2022-08-02T19:09:05.684Z,23.40
2022-08-02T19:10:57.404Z,23.20
2022-08-02T19:12:56.719Z,23.10
2022-08-02T19:14:56.701Z,23.10
2022-08-02T19:16:56.711Z,23.10
2022-08-02T19:18:57.656Z,23.10
2022-08-02T19:22:56.680Z,22.90
2022-08-02T19:25:01.185Z,22.90
2022-08-02T19:26:57.024Z,22.80
2022-08-02T19:28:56.726Z,22.80
2022-08-02T19:30:56.698Z,22.80
2022-08-02T19:34:56.750Z,22.70
2022-08-02T19:38:56.945Z,22.60
2022-08-02T19:40:56.752Z,22.50
2022-08-02T19:44:26.774Z,22.40
2022-08-02T19:45:48.395Z,22.30
2022-08-02T19:47:26.803Z,22.30
2022-08-02T19:49:40.346Z,22.20
2022-08-02T19:51:50.044Z,22.10
2022-08-02T19:53:28.733Z,22.00
2022-08-02T19:56:01.176Z,22.00
2022-08-02T19:57:26.766Z,22.00
2022-08-02T19:59:26.814Z,21.90
2022-08-02T20:01:36.774Z,21.90
2022-08-02T20:03:51.340Z,21.80
2022-08-02T20:05:27.222Z,21.90
2022-08-02T20:07:54.230Z,21.90
2022-08-02T20:11:26.828Z,21.90
2022-08-02T20:15:15.765Z,21.90
2022-08-02T20:17:15.362Z,21.90
2022-08-02T20:19:15.414Z,21.90
2022-08-02T20:21:34.061Z,21.80
2022-08-02T20:23:33.188Z,21.80
2022-08-02T20:25:15.940Z,21.80
2022-08-02T20:27:21.771Z,21.60
2022-08-02T20:29:15.377Z,21.50
2022-08-02T20:31:15.393Z,21.40
2022-08-02T20:33:21.864Z,21.30
2022-08-02T20:35:15.406Z,21.30
2022-08-02T20:37:59.497Z,21.10
2022-08-02T20:39:15.457Z,20.90
2022-08-02T20:41:21.731Z,20.90
2022-08-02T20:43:15.380Z,20.90
2022-08-02T20:45:15.432Z,20.60
2022-08-02T20:47:15.361Z,20.40
2022-08-02T20:49:23.321Z,20.20
2022-08-02T20:51:15.354Z,20.10
2022-08-02T20:53:24.001Z,20.10
2022-08-02T20:55:16.948Z,20.00
2022-08-02T20:57:15.382Z,19.90
2022-08-02T20:59:15.813Z,19.80
2022-08-02T21:01:57.147Z,19.60
2022-08-02T21:03:45.402Z,19.60
2022-08-02T21:05:55.141Z,19.60
2022-08-02T21:07:47.832Z,19.50
2022-08-02T21:09:52.856Z,19.50
2022-08-02T21:11:50.818Z,19.40
2022-08-02T21:13:47.378Z,19.40
2022-08-02T21:15:45.454Z,19.50
2022-08-02T21:17:52.646Z,19.60
2022-08-02T21:19:45.398Z,19.60
2022-08-02T21:21:45.405Z,19.60
2022-08-02T21:23:54.477Z,19.60
2022-08-02T21:25:56.854Z,19.90
2022-08-02T21:27:53.136Z,20.00
2022-08-02T21:29:45.406Z,20.00
2022-08-02T21:31:45.390Z,20.00
2022-08-02T21:33:57.391Z,20.00
2022-08-02T21:35:45.397Z,20.00
2022-08-02T21:37:45.488Z,19.90
2022-08-02T21:39:45.407Z,19.90
2022-08-02T21:41:47.054Z,19.90
2022-08-02T21:43:45.414Z,19.90
2022-08-02T21:45:53.878Z,19.90
2022-08-02T21:47:45.425Z,19.80
2022-08-02T21:50:13.518Z,19.80
2022-08-02T21:51:49.773Z,19.70
2022-08-02T21:54:17.930Z,19.60
2022-08-02T21:56:01.107Z,19.40
2022-08-02T21:57:45.515Z,19.20
2022-08-02T21:59:45.708Z,19.20
2022-08-02T22:01:52.839Z,19.00
2022-08-02T22:03:55.597Z,19.00
2022-08-02T22:05:47.243Z,18.80
2022-08-02T22:07:45.825Z,18.60
2022-08-02T22:09:46.002Z,18.60
2022-08-02T22:11:46.223Z,18.50
2022-08-02T22:13:47.633Z,18.40
2022-08-02T22:15:45.446Z,18.30
2022-08-02T22:17:51.657Z,18.30
2022-08-02T22:19:53.725Z,18.20
2022-08-02T22:21:54.566Z,18.10
2022-08-02T22:23:50.028Z,18.00
2022-08-02T22:25:45.446Z,18.00
2022-08-02T22:28:35.482Z,18.00
2022-08-02T22:29:45.452Z,17.80
2022-08-02T22:31:45.448Z,17.80
2022-08-02T22:33:47.160Z,17.70
2022-08-02T22:35:45.446Z,17.60
2022-08-02T22:38:16.464Z,17.60
2022-08-02T22:40:05.933Z,17.60
2022-08-02T22:42:05.265Z,17.60
2022-08-02T22:43:45.644Z,17.60
2022-08-02T22:45:45.451Z,17.60
2022-08-02T22:47:51.187Z,17.80
2022-08-02T22:49:54.315Z,17.90
2022-08-02T22:51:45.461Z,17.90
2022-08-02T22:53:45.476Z,18.00
2022-08-02T22:55:45.525Z,18.00
2022-08-02T22:57:56.317Z,18.00
2022-08-02T22:58:59.844Z,22.70
2022-08-02T22:59:45.455Z,18.00
2022-08-02T23:01:45.643Z,18.00
2022-08-02T23:03:45.481Z,17.90
2022-08-02T23:05:45.474Z,17.90
2022-08-02T23:08:15.487Z,17.90
2022-08-02T23:10:15.540Z,17.90
2022-08-02T23:12:15.580Z,17.80
2022-08-02T23:14:15.481Z,17.80
2022-08-02T23:16:15.544Z,17.70
2022-08-02T23:18:15.511Z,17.70
2022-08-02T23:20:15.481Z,17.60
2022-08-02T23:22:15.645Z,17.50
2022-08-02T23:24:15.489Z,17.50
2022-08-02T23:26:15.498Z,17.60
2022-08-02T23:28:15.483Z,17.60
2022-08-02T23:30:15.485Z,17.80
2022-08-02T23:32:15.655Z,17.80
2022-08-02T23:34:15.854Z,17.90
2022-08-02T23:36:15.495Z,18.00
2022-08-02T23:38:15.488Z,18.00
2022-08-02T23:40:15.506Z,18.00
2022-08-02T23:42:15.739Z,18.00
2022-08-02T23:44:15.626Z,18.10
2022-08-02T23:46:15.572Z,18.10
2022-08-02T23:48:15.504Z,18.10
2022-08-02T23:50:15.509Z,18.10
2022-08-02T23:52:15.669Z,18.20
2022-08-02T23:54:15.663Z,18.20
2022-08-02T23:56:15.523Z,18.20
2022-08-02T23:58:15.530Z,18.20
